Time;durP1;ratioP1;P1;durP2;ratioP2;P2;SDS_P1;SDS_P2;PMS_P1;PMS_P2;Temp;Humidity;BMP_temperature;BMP_pressure;BME280_temperature;BME280_humidity;BME280_pressure;Samples;Min_cycle;Max_cycle;Signal;HPM_P1;HPM_P2
2022/04/27 00:01:46;;;;;;;17.88;16.88;;;;;;;;;;5078166;28;20036;-60
2022/04/27 00:04:12;;;;;;;17.95;16.95;;;;;;;;;;5071734;28;20108;-59
2022/04/27 00:06:37;;;;;;;14.65;13.77;;;;;;;;;;5072722;28;20032;-59
2022/04/27 00:09:04;;;;;;;15.35;14.45;;;;;;;;;;5073795;28;20496;-59
2022/04/27 00:11:29;;;;;;;16.88;15.77;;;;;;;;;;5072026;28;20028;-59
2022/04/27 00:13:56;;;;;;;16.10;15.13;;;;;;;;;;5073569;28;20027;-60
2022/04/27 00:16:22;;;;;;;16.15;15.05;;;;;;;;;;5070820;28;20036;-60
2022/04/27 00:18:47;;;;;;;15.07;14.18;;;;;;;;;;5070702;28;20032;-59
2022/04/27 00:21:13;;;;;;;16.85;15.88;;;;;;;;;;5072626;28;20142;-59
2022/04/27 00:23:38;;;;;;;14.88;14.05;;;;;;;;;;5073828;28;20044;-59
2022/04/27 00:26:04;;;;;;;16.48;15.48;;;;;;;;;;5073062;28;20104;-59
2022/04/27 00:28:29;;;;;;;17.55;16.55;;;;;;;;;;5073126;28;20544;-59
2022/04/27 00:30:54;;;;;;;15.75;14.82;;;;;;;;;;5069819;28;20175;-60
2022/04/27 00:33:20;;;;;;;17.02;15.93;;;;;;;;;;5067338;28;20036;-59
2022/04/27 00:35:45;;;;;;;15.50;14.60;;;;;;;;;;5070801;28;20028;-59
2022/04/27 00:38:10;;;;;;;18.85;17.77;;;;;;;;;;5072989;28;20032;-59
2022/04/27 00:40:36;;;;;;;17.67;16.65;;;;;;;;;;5071661;28;20035;-59
2022/04/27 00:43:01;;;;;;;16.52;15.48;;;;;;;;;;5072449;28;20051;-59
2022/04/27 00:45:26;;;;;;;16.27;15.27;;;;;;;;;;5073387;28;20043;-59
2022/04/27 00:47:52;;;;;;;18.10;17.10;;;;;;;;;;5072264;28;20483;-59
2022/04/27 00:50:17;;;;;;;17.88;16.77;;;;;;;;;;5072474;28;20036;-59
2022/04/27 00:52:43;;;;;;;17.38;16.38;;;;;;;;;;5070788;28;20037;-60
2022/04/27 00:55:10;;;;;;;17.67;16.60;;;;;;;;;;5070847;28;20028;-59
2022/04/27 00:57:39;;;;;;;14.07;13.27;;;;;;;;;;5073860;28;20032;-59
2022/04/27 01:00:06;;;;;;;14.73;13.80;;;;;;;;;;5074843;28;20457;-60
2022/04/27 01:02:34;;;;;;;16.33;15.43;;;;;;;;;;5076084;28;20449;-59
2022/04/27 01:04:59;;;;;;;16.48;15.48;;;;;;;;;;5074541;28;20040;-60
2022/04/27 01:07:25;;;;;;;16.95;15.95;;;;;;;;;;5077438;28;20630;-59
2022/04/27 01:09:50;;;;;;;16.40;15.40;;;;;;;;;;5075039;28;20024;-59
2022/04/27 01:12:16;;;;;;;16.80;15.82;;;;;;;;;;5074733;28;20692;-60
2022/04/27 01:14:45;;;;;;;16.13;15.13;;;;;;;;;;5076874;28;20025;-60
2022/04/27 01:17:11;;;;;;;14.38;13.50;;;;;;;;;;5074236;28;20119;-59
2022/04/27 01:19:37;;;;;;;16.40;15.45;;;;;;;;;;5077427;28;20465;-59
2022/04/27 01:22:03;;;;;;;14.50;13.68;;;;;;;;;;5075995;28;20054;-59
2022/04/27 01:24:30;;;;;;;16.02;14.93;;;;;;;;;;5076106;28;20369;-59
2022/04/27 01:26:56;;;;;;;16.67;15.68;;;;;;;;;;5075203;28;20024;-59
2022/04/27 01:29:22;;;;;;;15.30;14.40;;;;;;;;;;5072522;28;20043;-59
2022/04/27 01:31:49;;;;;;;13.88;13.05;;;;;;;;;;5076412;28;20028;-60
2022/04/27 01:34:14;;;;;;;15.10;14.20;;;;;;;;;;5073827;28;20111;-59
2022/04/27 01:36:39;;;;;;;14.27;13.43;;;;;;;;;;5076325;28;20048;-59
2022/04/27 01:39:06;;;;;;;15.52;14.63;;;;;;;;;;5075937;28;20505;-59
2022/04/27 01:41:33;;;;;;;14.05;13.25;;;;;;;;;;5075277;28;20036;-59
2022/04/27 01:43:58;;;;;;;15.43;14.52;;;;;;;;;;5075174;28;20032;-59
2022/04/27 01:46:24;;;;;;;13.20;12.40;;;;;;;;;;5077986;28;20044;-59
2022/04/27 01:48:53;;;;;;;14.90;14.00;;;;;;;;;;5075211;28;20486;-59
2022/04/27 01:51:19;;;;;;;17.00;16.00;;;;;;;;;;5074347;28;20039;-60
2022/04/27 01:56:29;;;;;;;12.85;12.05;;;;;;;;;;5075192;28;20043;-61
2022/04/27 01:58:54;;;;;;;14.30;13.43;;;;;;;;;;5075235;28;20058;-60
2022/04/27 02:01:21;;;;;;;9.65;9.05;;;;;;;;;;5075987;28;20071;-60
2022/04/27 02:03:47;;;;;;;8.88;8.30;;;;;;;;;;5074810;28;20153;-60
2022/04/27 02:06:16;;;;;;;8.95;8.38;;;;;;;;;;5073268;28;20102;-60
2022/04/27 02:08:42;;;;;;;9.18;8.57;;;;;;;;;;5075438;28;20070;-60
2022/04/27 02:11:07;;;;;;;10.98;10.27;;;;;;;;;;5071549;28;20137;-60
2022/04/27 02:13:33;;;;;;;9.82;9.23;;;;;;;;;;5076257;28;20051;-59
2022/04/27 02:16:00;;;;;;;10.48;9.68;;;;;;;;;;5075270;28;20046;-60
2022/04/27 02:18:26;;;;;;;9.95;9.27;;;;;;;;;;5073934;28;20149;-60
2022/04/27 02:20:52;;;;;;;8.15;7.55;;;;;;;;;;5072180;28;20138;-60
2022/04/27 02:23:20;;;;;;;9.65;9.05;;;;;;;;;;5071174;28;20031;-60
2022/04/27 02:25:46;;;;;;;9.80;9.10;;;;;;;;;;5075226;28;20060;-60
2022/04/27 02:28:11;;;;;;;9.93;9.23;;;;;;;;;;5073051;28;20071;-60
2022/04/27 02:30:36;;;;;;;7.25;6.75;;;;;;;;;;5073177;28;20139;-60
2022/04/27 02:33:02;;;;;;;8.98;8.38;;;;;;;;;;5072216;28;20127;-60
2022/04/27 02:35:28;;;;;;;9.20;8.60;;;;;;;;;;5074926;28;20454;-60
2022/04/27 02:37:53;;;;;;;7.22;6.68;;;;;;;;;;5076461;28;20093;-59
2022/04/27 02:40:18;;;;;;;6.68;6.18;;;;;;;;;;5074850;28;20043;-60
2022/04/27 02:42:44;;;;;;;7.03;6.53;;;;;;;;;;5077326;28;20455;-60
2022/04/27 02:45:10;;;;;;;5.70;5.30;;;;;;;;;;5072923;28;20060;-60
2022/04/27 02:47:35;;;;;;;7.55;7.00;;;;;;;;;;5073147;28;20028;-60
2022/04/27 02:52:47;;;;;;;6.55;6.05;;;;;;;;;;5076757;28;20207;-60
2022/04/27 02:55:12;;;;;;;6.72;6.13;;;;;;;;;;5075566;28;20082;-60
2022/04/27 02:57:38;;;;;;;6.28;5.78;;;;;;;;;;5074303;28;20032;-60
2022/04/27 03:00:04;;;;;;;6.68;6.18;;;;;;;;;;5076432;28;20036;-60
2022/04/27 03:02:30;;;;;;;5.88;5.43;;;;;;;;;;5073446;28;20019;-60
2022/04/27 03:04:55;;;;;;;6.30;5.80;;;;;;;;;;5073622;28;20469;-60
2022/04/27 03:07:20;;;;;;;6.75;6.25;;;;;;;;;;5070220;28;20551;-59
2022/04/27 03:09:47;;;;;;;6.10;5.60;;;;;;;;;;5070573;28;20035;-59
2022/04/27 03:12:12;;;;;;;5.82;5.43;;;;;;;;;;5073105;28;20243;-60
2022/04/27 03:14:38;;;;;;;5.85;5.40;;;;;;;;;;5070067;28;20080;-60
2022/04/27 03:17:03;;;;;;;5.78;5.35;;;;;;;;;;5075551;28;20410;-59
2022/04/27 03:19:29;;;;;;;7.47;6.88;;;;;;;;;;5069994;28;20043;-59
2022/04/27 03:21:54;;;;;;;7.20;6.60;;;;;;;;;;5070522;28;20024;-59
2022/04/27 03:24:20;;;;;;;8.15;7.55;;;;;;;;;;5073187;28;20032;-59
2022/04/27 03:26:47;;;;;;;8.27;7.65;;;;;;;;;;5074074;28;20074;-61
2022/04/27 03:29:15;;;;;;;7.10;6.53;;;;;;;;;;5073410;28;20032;-54
2022/04/27 03:31:41;;;;;;;7.22;6.72;;;;;;;;;;5072448;28;20111;-53
2022/04/27 03:34:06;;;;;;;7.60;7.03;;;;;;;;;;5075773;28;20108;-53
2022/04/27 03:36:31;;;;;;;6.72;6.22;;;;;;;;;;5076172;28;20036;-50
2022/04/27 03:38:58;;;;;;;5.95;5.47;;;;;;;;;;5077677;28;20024;-52
2022/04/27 03:41:23;;;;;;;6.78;6.28;;;;;;;;;;5075728;28;20133;-52
2022/04/27 03:43:50;;;;;;;6.80;6.30;;;;;;;;;;5073365;28;20031;-60
2022/04/27 03:46:16;;;;;;;7.47;6.88;;;;;;;;;;5076613;28;20135;-59
2022/04/27 03:48:41;;;;;;;6.53;6.03;;;;;;;;;;5072688;28;20653;-60
2022/04/27 03:51:07;;;;;;;7.05;6.35;;;;;;;;;;5074120;28;20020;-59
2022/04/27 03:53:33;;;;;;;7.78;7.05;;;;;;;;;;5073464;28;20039;-59
2022/04/27 03:55:58;;;;;;;5.45;4.95;;;;;;;;;;5076679;28;20127;-59
2022/04/27 03:58:24;;;;;;;6.00;5.50;;;;;;;;;;5073152;28;20028;-60
2022/04/27 04:00:49;;;;;;;6.45;5.95;;;;;;;;;;5074502;28;20039;-54
2022/04/27 04:03:14;;;;;;;6.95;5.97;;;;;;;;;;5073586;28;20036;-51
2022/04/27 04:05:41;;;;;;;6.40;5.80;;;;;;;;;;5075079;28;20423;-50
2022/04/27 04:08:07;;;;;;;6.85;6.35;;;;;;;;;;5070922;28;20062;-50
2022/04/27 04:10:32;;;;;;;6.43;5.93;;;;;;;;;;5072753;28;20060;-52
2022/04/27 04:12:57;;;;;;;5.63;5.13;;;;;;;;;;5071863;28;20056;-52
2022/04/27 04:15:23;;;;;;;7.25;6.55;;;;;;;;;;5074092;28;20554;-59
2022/04/27 04:17:48;;;;;;;6.85;6.15;;;;;;;;;;5073019;28;20028;-60
2022/04/27 04:20:17;;;;;;;7.45;6.85;;;;;;;;;;5071357;28;20170;-53
2022/04/27 04:22:43;;;;;;;7.32;6.72;;;;;;;;;;5074675;28;20047;-50
2022/04/27 04:30:36;;;;;;;7.40;6.75;;;;;;;;;;5071756;28;20032;-61
2022/04/27 04:33:02;;;;;;;6.35;5.85;;;;;;;;;;5075887;28;20047;-60
2022/04/27 04:35:28;;;;;;;6.70;6.20;;;;;;;;;;5072423;28;20043;-60
2022/04/27 04:37:54;;;;;;;7.20;6.57;;;;;;;;;;5078652;28;20105;-60
2022/04/27 04:40:20;;;;;;;6.43;5.80;;;;;;;;;;5076536;28;20168;-61
2022/04/27 04:42:45;;;;;;;5.78;5.28;;;;;;;;;;5074018;28;20046;-60
2022/04/27 04:45:10;;;;;;;7.47;6.90;;;;;;;;;;5078214;28;20020;-52
2022/04/27 04:47:36;;;;;;;6.88;6.28;;;;;;;;;;5078407;28;20485;-53
2022/04/27 04:50:01;;;;;;;7.55;6.88;;;;;;;;;;5077394;28;20485;-53
2022/04/27 04:52:27;;;;;;;6.55;5.95;;;;;;;;;;5078337;28;20035;-51
2022/04/27 04:54:52;;;;;;;6.38;5.78;;;;;;;;;;5075710;28;20257;-53
2022/04/27 04:57:18;;;;;;;6.82;6.32;;;;;;;;;;5076281;28;20481;-49
2022/04/27 04:59:43;;;;;;;6.38;5.88;;;;;;;;;;5074344;28;20088;-59
2022/04/27 05:02:08;;;;;;;6.55;6.05;;;;;;;;;;5083103;28;20028;-51
2022/04/27 05:04:34;;;;;;;6.28;5.78;;;;;;;;;;5076348;28;20036;-52
2022/04/27 05:06:59;;;;;;;6.18;5.68;;;;;;;;;;5078207;28;20028;-59
2022/04/27 05:09:25;;;;;;;5.35;4.95;;;;;;;;;;5083638;28;20020;-58
2022/04/27 05:11:50;;;;;;;6.00;5.50;;;;;;;;;;5078417;28;20357;-58
2022/04/27 05:14:15;;;;;;;6.72;6.22;;;;;;;;;;5079149;28;20033;-52
2022/04/27 05:16:41;;;;;;;6.18;5.68;;;;;;;;;;5077221;28;20032;-49
2022/04/27 05:19:06;;;;;;;6.00;5.50;;;;;;;;;;5077202;28;20496;-60
2022/04/27 05:21:31;;;;;;;8.07;7.32;;;;;;;;;;5077702;28;20020;-50
2022/04/27 05:23:57;;;;;;;7.18;6.57;;;;;;;;;;5073201;28;20051;-52
2022/04/27 05:26:22;;;;;;;9.65;8.75;;;;;;;;;;5076098;28;20037;-51
2022/04/27 05:34:16;;;;;;;8.23;7.63;;;;;;;;;;5073902;28;20032;-49
2022/04/27 05:36:41;;;;;;;9.38;8.68;;;;;;;;;;5075220;28;20056;-53
2022/04/27 05:39:06;;;;;;;10.95;10.20;;;;;;;;;;5074022;28;20450;-60
2022/04/27 05:41:32;;;;;;;9.57;8.88;;;;;;;;;;5075194;28;20119;-60
2022/04/27 05:43:57;;;;;;;10.93;10.15;;;;;;;;;;5071789;28;20056;-60
2022/04/27 05:46:23;;;;;;;10.00;9.30;;;;;;;;;;5071152;28;20115;-50
2022/04/27 05:48:49;;;;;;;9.15;8.48;;;;;;;;;;5071092;28;20111;-51
2022/04/27 05:51:14;;;;;;;10.07;9.27;;;;;;;;;;5077403;28;20051;-50
2022/04/27 05:53:41;;;;;;;9.20;8.48;;;;;;;;;;5077915;28;20027;-52
2022/04/27 05:56:07;;;;;;;10.25;9.55;;;;;;;;;;5075256;28;20028;-49
2022/04/27 05:58:32;;;;;;;7.72;7.13;;;;;;;;;;5073311;28;20490;-50
2022/04/27 06:00:58;;;;;;;11.88;11.07;;;;;;;;;;5074059;28;20131;-49
2022/04/27 06:03:23;;;;;;;10.73;9.85;;;;;;;;;;5073544;28;20025;-51
2022/04/27 06:05:48;;;;;;;14.32;13.32;;;;;;;;;;5074856;28;20080;-51
2022/04/27 06:08:14;;;;;;;11.32;10.50;;;;;;;;;;5071684;28;20051;-53
2022/04/27 06:10:40;;;;;;;11.88;11.07;;;;;;;;;;5071526;28;20050;-51
2022/04/27 06:13:06;;;;;;;12.55;11.75;;;;;;;;;;5076365;28;20115;-54
2022/04/27 06:15:31;;;;;;;10.30;9.52;;;;;;;;;;5073705;28;20028;-53
2022/04/27 06:17:56;;;;;;;9.93;9.23;;;;;;;;;;5074440;28;20029;-50
2022/04/27 06:20:22;;;;;;;10.23;9.52;;;;;;;;;;5075160;28;20037;-50
2022/04/27 06:22:47;;;;;;;12.32;11.43;;;;;;;;;;5075418;28;20110;-52
2022/04/27 06:25:13;;;;;;;11.35;10.63;;;;;;;;;;5073606;28;20387;-50
2022/04/27 06:27:39;;;;;;;14.55;13.55;;;;;;;;;;5074767;28;20129;-49
2022/04/27 06:30:05;;;;;;;14.77;13.75;;;;;;;;;;5075949;28;20032;-50
2022/04/27 06:32:31;;;;;;;15.75;14.68;;;;;;;;;;5081658;28;20517;-51
2022/04/27 06:35:00;;;;;;;18.00;16.77;;;;;;;;;;5074938;28;20020;-51
2022/04/27 06:37:27;;;;;;;18.75;17.55;;;;;;;;;;5075604;28;20028;-50
2022/04/27 06:39:52;;;;;;;18.90;17.77;;;;;;;;;;5072020;28;20048;-50
2022/04/27 06:42:21;;;;;;;18.40;17.30;;;;;;;;;;5070630;28;20063;-60
2022/04/27 06:44:48;;;;;;;22.70;21.30;;;;;;;;;;5070764;28;20036;-51
2022/04/27 06:47:13;;;;;;;20.02;18.80;;;;;;;;;;5070969;28;20035;-52
2022/04/27 06:49:38;;;;;;;24.52;22.98;;;;;;;;;;5073548;28;20067;-60
2022/04/27 06:52:04;;;;;;;20.27;19.08;;;;;;;;;;5072159;28;20043;-60
2022/04/27 06:54:29;;;;;;;21.63;20.30;;;;;;;;;;5072796;28;20115;-49
2022/04/27 06:56:55;;;;;;;20.85;19.25;;;;;;;;;;5073614;28;20029;-49
2022/04/27 06:59:20;;;;;;;22.55;21.20;;;;;;;;;;5069774;28;20032;-49
2022/04/27 07:01:45;;;;;;;21.48;20.15;;;;;;;;;;5072794;28;20035;-59
2022/04/27 07:04:11;;;;;;;20.83;19.55;;;;;;;;;;5072647;28;20064;-59
2022/04/27 07:06:38;;;;;;;20.08;18.88;;;;;;;;;;5073897;28;20042;-51
2022/04/27 07:09:04;;;;;;;15.85;14.65;;;;;;;;;;5074045;28;20342;-52
2022/04/27 07:11:30;;;;;;;15.77;14.80;;;;;;;;;;5076319;28;20036;-58
2022/04/27 07:13:55;;;;;;;16.70;15.60;;;;;;;;;;5076209;28;20511;-59
2022/04/27 07:16:21;;;;;;;13.43;12.45;;;;;;;;;;5077090;28;20016;-49
2022/04/27 07:18:46;;;;;;;13.75;12.80;;;;;;;;;;5073226;28;20654;-50
2022/04/27 07:21:12;;;;;;;16.55;15.25;;;;;;;;;;5075443;28;20028;-58
2022/04/27 07:23:38;;;;;;;20.40;19.00;;;;;;;;;;5072454;28;20033;-59
2022/04/27 07:26:07;;;;;;;19.88;18.67;;;;;;;;;;5071695;28;20470;-59
2022/04/27 07:28:32;;;;;;;19.90;18.70;;;;;;;;;;5073405;28;20033;-59
2022/04/27 07:30:58;;;;;;;19.45;18.15;;;;;;;;;;5073426;28;20048;-59
2022/04/27 07:33:24;;;;;;;20.10;18.63;;;;;;;;;;5071856;28;20108;-59
2022/04/27 07:35:49;;;;;;;16.83;15.70;;;;;;;;;;5070577;28;20349;-59
2022/04/27 07:38:15;;;;;;;22.38;20.98;;;;;;;;;;5072027;28;20115;-59
2022/04/27 07:40:41;;;;;;;16.88;15.88;;;;;;;;;;5072931;28;20070;-59
2022/04/27 07:43:06;;;;;;;14.38;13.38;;;;;;;;;;5072334;28;20028;-60
2022/04/27 07:45:31;;;;;;;19.80;18.00;;;;;;;;;;5070799;28;20042;-59
2022/04/27 07:47:57;;;;;;;12.38;11.50;;;;;;;;;;5074823;28;20036;-59
2022/04/27 07:50:23;;;;;;;12.73;11.77;;;;;;;;;;5074823;28;20480;-58
2022/04/27 07:52:48;;;;;;;12.05;11.15;;;;;;;;;;5073679;28;20024;-58
2022/04/27 07:55:14;;;;;;;10.77;9.98;;;;;;;;;;5066204;28;20028;-59
2022/04/27 07:57:40;;;;;;;12.40;11.43;;;;;;;;;;5061796;28;20036;-59
2022/04/27 08:00:11;;;;;;;11.05;10.32;;;;;;;;;;5069335;28;20063;-59
2022/04/27 08:02:38;;;;;;;13.65;12.63;;;;;;;;;;5070684;28;20096;-59
2022/04/27 08:05:04;;;;;;;13.95;12.98;;;;;;;;;;5069033;28;20040;-59
2022/04/27 08:07:38;;;;;;;13.35;12.35;;;;;;;;;;5068677;28;20040;-59
2022/04/27 08:10:29;;;;;;;11.63;10.73;;;;;;;;;;5068834;28;20102;-59
2022/04/27 08:12:55;;;;;;;13.20;12.30;;;;;;;;;;5074925;28;20044;-59
2022/04/27 08:15:22;;;;;;;16.27;15.02;;;;;;;;;;5071438;28;20324;-59
2022/04/27 08:17:59;;;;;;;15.18;14.18;;;;;;;;;;5072066;28;20032;-59
2022/04/27 08:23:13;;;;;;;12.90;12.10;;;;;;;;;;5072509;28;20052;-60
2022/04/27 08:25:39;;;;;;;13.85;12.85;;;;;;;;;;5074937;28;20434;-51
2022/04/27 08:28:06;;;;;;;16.10;15.10;;;;;;;;;;5072848;28;20036;-53
2022/04/27 08:30:40;;;;;;;17.70;16.60;;;;;;;;;;5074722;28;20066;-51
2022/04/27 08:33:06;;;;;;;14.55;13.48;;;;;;;;;;5073942;28;20020;-49
2022/04/27 08:35:33;;;;;;;14.32;13.38;;;;;;;;;;5077589;28;20043;-49
2022/04/27 08:37:59;;;;;;;13.27;12.38;;;;;;;;;;5087825;28;20036;-47
2022/04/27 08:40:25;;;;;;;14.18;13.10;;;;;;;;;;5073677;28;20107;-51
2022/04/27 08:42:52;;;;;;;14.75;13.75;;;;;;;;;;5072494;28;20028;-48
2022/04/27 08:45:17;;;;;;;16.15;15.15;;;;;;;;;;5072650;28;20191;-50
2022/04/27 08:47:45;;;;;;;15.93;14.90;;;;;;;;;;5072167;28;20116;-58
2022/04/27 08:50:15;;;;;;;16.25;15.25;;;;;;;;;;5074514;28;20032;-58
2022/04/27 08:52:42;;;;;;;14.73;13.73;;;;;;;;;;5073212;28;20042;-58
2022/04/27 08:55:08;;;;;;;13.90;12.90;;;;;;;;;;5073781;28;20373;-58
2022/04/27 08:57:34;;;;;;;16.58;15.40;;;;;;;;;;5071842;28;20046;-58
2022/04/27 09:00:00;;;;;;;19.42;18.23;;;;;;;;;;5073473;28;20055;-51
2022/04/27 09:02:27;;;;;;;13.48;12.68;;;;;;;;;;5073005;28;20052;-49
2022/04/27 09:05:08;;;;;;;14.70;13.73;;;;;;;;;;5070226;28;20028;-49
2022/04/27 09:07:37;;;;;;;13.32;12.45;;;;;;;;;;5070834;28;20032;-50
2022/04/27 09:10:04;;;;;;;14.48;13.48;;;;;;;;;;5071957;28;20036;-48
2022/04/27 09:12:29;;;;;;;19.13;18.00;;;;;;;;;;5069218;28;20047;-50
2022/04/27 09:15:06;;;;;;;14.20;13.27;;;;;;;;;;5071862;28;20032;-59
2022/04/27 09:23:02;;;;;;;14.55;13.50;;;;;;;;;;5072173;28;20378;-50
2022/04/27 09:25:32;;;;;;;14.65;13.68;;;;;;;;;;5072323;28;20032;-58
2022/04/27 09:28:00;;;;;;;15.43;14.43;;;;;;;;;;5069964;28;20036;-60
2022/04/27 09:30:26;;;;;;;18.30;17.13;;;;;;;;;;5070028;28;20552;-60
2022/04/27 09:32:52;;;;;;;16.25;15.25;;;;;;;;;;5070177;28;20107;-60
2022/04/27 09:35:38;;;;;;;12.40;11.60;;;;;;;;;;5071448;28;20111;-59
2022/04/27 09:38:18;;;;;;;14.23;13.23;;;;;;;;;;5069234;28;20314;-59
2022/04/27 09:40:50;;;;;;;15.35;14.45;;;;;;;;;;5072440;28;20354;-59
2022/04/27 09:43:16;;;;;;;14.82;13.93;;;;;;;;;;5069293;28;20043;-60
2022/04/27 09:45:45;;;;;;;16.67;15.68;;;;;;;;;;5072222;28;20039;-60
2022/04/27 09:48:20;;;;;;;14.63;13.73;;;;;;;;;;5074403;28;20089;-60
2022/04/27 09:50:55;;;;;;;11.27;10.48;;;;;;;;;;5071191;28;20051;-60
2022/04/27 09:53:21;;;;;;;8.60;7.85;;;;;;;;;;5072353;28;20032;-59
2022/04/27 09:55:48;;;;;;;13.80;12.80;;;;;;;;;;5070963;28;20024;-60
2022/04/27 09:58:16;;;;;;;12.77;11.95;;;;;;;;;;5069746;28;20041;-59
2022/04/27 10:00:43;;;;;;;12.50;11.70;;;;;;;;;;5068008;28;20690;-58
2022/04/27 10:03:14;;;;;;;10.85;10.13;;;;;;;;;;5072385;28;20048;-59
2022/04/27 10:05:40;;;;;;;16.67;15.60;;;;;;;;;;5073864;28;20132;-60
2022/04/27 10:08:07;;;;;;;33.55;31.65;;;;;;;;;;5067846;28;20101;-60
2022/04/27 10:10:33;;;;;;;28.60;26.65;;;;;;;;;;5068684;28;20032;-58
2022/04/27 10:13:02;;;;;;;34.67;32.83;;;;;;;;;;5071579;28;20028;-59
2022/04/27 10:15:29;;;;;;;37.17;35.15;;;;;;;;;;5069474;28;20028;-59
2022/04/27 10:17:55;;;;;;;40.20;38.05;;;;;;;;;;5066441;28;20043;-59
2022/04/27 10:20:34;;;;;;;28.30;26.70;;;;;;;;;;5070774;28;20060;-59
2022/04/27 10:23:15;;;;;;;13.35;12.48;;;;;;;;;;5067866;28;20028;-58
2022/04/27 10:25:41;;;;;;;8.90;8.20;;;;;;;;;;5068429;28;20035;-58
2022/04/27 10:28:18;;;;;;;27.85;26.38;;;;;;;;;;5069920;28;20037;-59
2022/04/27 10:30:44;;;;;;;25.17;23.80;;;;;;;;;;5070901;28;20037;-59
2022/04/27 10:33:09;;;;;;;27.92;26.33;;;;;;;;;;5070043;28;20036;-59
2022/04/27 10:35:36;;;;;;;19.30;18.15;;;;;;;;;;5071633;28;20314;-59
2022/04/27 10:38:05;;;;;;;20.45;19.25;;;;;;;;;;5074210;28;20447;-60
2022/04/27 10:40:42;;;;;;;22.15;20.77;;;;;;;;;;5070482;28;20032;-60
2022/04/27 10:43:08;;;;;;;29.38;27.75;;;;;;;;;;5070245;28;20197;-51
2022/04/27 10:45:35;;;;;;;17.92;16.90;;;;;;;;;;5072765;28;20524;-49
2022/04/27 10:48:04;;;;;;;26.20;24.73;;;;;;;;;;5072606;28;20612;-50
2022/04/27 10:50:36;;;;;;;16.88;15.88;;;;;;;;;;5071057;28;20048;-49
2022/04/27 10:53:19;;;;;;;22.60;21.40;;;;;;;;;;5074481;28;20135;-51
2022/04/27 10:55:54;;;;;;;26.55;24.92;;;;;;;;;;5069606;28;20091;-60
2022/04/27 10:58:22;;;;;;;25.88;24.27;;;;;;;;;;5073407;28;20081;-60
2022/04/27 11:01:19;;;;;;;22.95;21.52;;;;;;;;;;5068672;28;20496;-60
2022/04/27 11:03:54;;;;;;;22.52;20.95;;;;;;;;;;5067544;28;20133;-58
2022/04/27 11:06:21;;;;;;;23.95;22.65;;;;;;;;;;5073580;28;21282;-47
2022/04/27 11:09:05;;;;;;;33.35;31.45;;;;;;;;;;5070937;28;20087;-48
2022/04/27 11:11:31;;;;;;;28.02;26.52;;;;;;;;;;5070242;28;20411;-50
2022/04/27 11:14:06;;;;;;;39.28;36.85;;;;;;;;;;5070868;28;20032;-50
2022/04/27 11:16:42;;;;;;;33.50;31.60;;;;;;;;;;5070518;28;20414;-48
2022/04/27 11:19:08;;;;;;;37.92;35.97;;;;;;;;;;5066396;28;20119;-48
2022/04/27 11:21:33;;;;;;;39.38;37.33;;;;;;;;;;5070403;28;20105;-48
2022/04/27 11:24:04;;;;;;;26.98;25.42;;;;;;;;;;5071855;28;20028;-48
2022/04/27 11:26:30;;;;;;;43.42;41.08;;;;;;;;;;5069261;28;20031;-49
2022/04/27 11:28:57;;;;;;;16.60;15.60;;;;;;;;;;5068163;28;20040;-50
2022/04/27 11:31:22;;;;;;;38.25;36.13;;;;;;;;;;5071982;28;20462;-49
2022/04/27 11:33:48;;;;;;;14.50;13.60;;;;;;;;;;5070544;28;20039;-49
2022/04/27 11:36:24;;;;;;;20.58;19.38;;;;;;;;;;5068788;28;20089;-51
2022/04/27 11:38:51;;;;;;;20.80;19.63;;;;;;;;;;5069243;28;20380;-51
2022/04/27 11:41:19;;;;;;;31.52;29.85;;;;;;;;;;5072440;28;20039;-49
2022/04/27 11:43:45;;;;;;;18.90;17.77;;;;;;;;;;5066279;28;20024;-50
2022/04/27 11:46:11;;;;;;;22.23;21.02;;;;;;;;;;5065184;28;20040;-49
2022/04/27 11:48:36;;;;;;;18.10;17.10;;;;;;;;;;5067698;28;20040;-50
2022/04/27 11:51:02;;;;;;;44.88;42.58;;;;;;;;;;5068597;28;20066;-50
2022/04/27 11:53:28;;;;;;;18.33;17.13;;;;;;;;;;5067470;28;20111;-50
2022/04/27 11:55:54;;;;;;;15.68;14.77;;;;;;;;;;5069145;28;20289;-52
2022/04/27 11:58:27;;;;;;;14.13;13.27;;;;;;;;;;5067151;28;20028;-48
2022/04/27 12:00:56;;;;;;;13.05;12.25;;;;;;;;;;5069226;28;20092;-51
2022/04/27 12:03:23;;;;;;;32.83;31.13;;;;;;;;;;5073294;28;20043;-49
2022/04/27 12:05:51;;;;;;;25.38;23.98;;;;;;;;;;5068810;28;20067;-48
2022/04/27 12:08:21;;;;;;;17.40;16.40;;;;;;;;;;5068317;28;20051;-50
2022/04/27 12:10:46;;;;;;;16.08;15.18;;;;;;;;;;5069653;28;20086;-49
2022/04/27 12:13:20;;;;;;;15.25;14.35;;;;;;;;;;5066996;28;20040;-49
2022/04/27 12:15:49;;;;;;;25.05;23.75;;;;;;;;;;5067668;28;20032;-48
2022/04/27 12:18:25;;;;;;;30.38;28.75;;;;;;;;;;5068159;28;20496;-52
2022/04/27 12:20:52;;;;;;;14.27;13.48;;;;;;;;;;5065726;28;20179;-51
2022/04/27 12:23:25;;;;;;;17.58;16.58;;;;;;;;;;5071078;28;20108;-49
2022/04/27 12:25:54;;;;;;;32.63;30.92;;;;;;;;;;5067919;28;20042;-52
2022/04/27 12:28:21;;;;;;;41.47;39.38;;;;;;;;;;5066631;28;20040;-50
2022/04/27 12:30:57;;;;;;;26.23;24.83;;;;;;;;;;5068440;28;20040;-52
2022/04/27 12:33:26;;;;;;;23.45;22.15;;;;;;;;;;5069923;28;20033;-52
2022/04/27 12:39:09;;;;;;;19.23;18.08;;;;;;;;;;5070323;28;20051;-48
2022/04/27 12:41:44;;;;;;;42.28;40.00;;;;;;;;;;5067951;28;20089;-49
2022/04/27 12:44:13;;;;;;;29.35;27.80;;;;;;;;;;5068833;28;20238;-49
2022/04/27 12:46:57;;;;;;;28.63;27.13;;;;;;;;;;5067801;28;20072;-48
2022/04/27 12:49:26;;;;;;;20.73;19.63;;;;;;;;;;5067144;28;20028;-52
2022/04/27 12:51:52;;;;;;;18.83;17.77;;;;;;;;;;5071412;28;20458;-51
2022/04/27 12:54:19;;;;;;;22.08;20.88;;;;;;;;;;5070906;28;20052;-52
2022/04/27 12:56:44;;;;;;;22.83;21.60;;;;;;;;;;5078155;28;20062;-54
2022/04/27 12:59:14;;;;;;;24.52;23.13;;;;;;;;;;5073905;28;20583;-53
2022/04/27 13:01:40;;;;;;;28.98;27.45;;;;;;;;;;5076001;28;20036;-52
2022/04/27 13:04:06;;;;;;;54.72;51.92;;;;;;;;;;5076445;28;20032;-51
2022/04/27 13:06:32;;;;;;;45.95;43.60;;;;;;;;;;5075582;28;20224;-52
2022/04/27 13:11:55;;;;;;;23.30;22.00;;;;;;;;;;5077587;28;20024;-51
2022/04/27 13:11:56;;;;;;;44.47;42.17;;;;;;;;;;5078114;28;20342;-49
2022/04/27 13:14:25;;;;;;;32.55;30.75;;;;;;;;;;5076495;28;20086;-49
2022/04/27 13:16:54;;;;;;;22.15;20.95;;;;;;;;;;5076852;28;20551;-50
2022/04/27 13:19:20;;;;;;;29.77;28.13;;;;;;;;;;5076900;28;20108;-51
2022/04/27 13:21:46;;;;;;;20.42;19.23;;;;;;;;;;5066241;28;20139;-50
2022/04/27 13:24:12;;;;;;;35.40;33.55;;;;;;;;;;5067620;28;20024;-51
2022/04/27 13:26:38;;;;;;;31.65;29.95;;;;;;;;;;5075821;28;20416;-50
2022/04/27 13:29:03;;;;;;;19.67;18.58;;;;;;;;;;5076297;28;20119;-49
2022/04/27 13:31:29;;;;;;;25.70;24.33;;;;;;;;;;5077058;28;20032;-50
2022/04/27 13:33:55;;;;;;;20.42;19.23;;;;;;;;;;5075839;28;20051;-52
2022/04/27 13:36:20;;;;;;;27.40;26.00;;;;;;;;;;5078665;28;20919;-49
2022/04/27 13:38:46;;;;;;;22.92;21.67;;;;;;;;;;5074885;28;20042;-51
2022/04/27 13:41:12;;;;;;;25.10;23.80;;;;;;;;;;5073528;28;20028;-51
2022/04/27 13:43:38;;;;;;;20.65;19.52;;;;;;;;;;5081012;28;20495;-51
2022/04/27 13:46:05;;;;;;;23.25;22.02;;;;;;;;;;5075191;28;20805;-52
2022/04/27 13:48:30;;;;;;;19.65;18.58;;;;;;;;;;5075360;28;20138;-52
2022/04/27 13:50:56;;;;;;;17.85;16.85;;;;;;;;;;5078759;28;20103;-51
2022/04/27 13:53:21;;;;;;;25.17;23.77;;;;;;;;;;5075871;28;20074;-48
2022/04/27 13:55:47;;;;;;;20.77;19.67;;;;;;;;;;5077228;28;20081;-48
2022/04/27 13:58:12;;;;;;;44.80;42.53;;;;;;;;;;5077925;28;20040;-51
2022/04/27 14:00:38;;;;;;;62.75;59.58;;;;;;;;;;5076660;28;20090;-52
2022/04/27 14:03:03;;;;;;;67.60;64.20;;;;;;;;;;5076213;28;20024;-50
2022/04/27 14:05:29;;;;;;;64.53;61.25;;;;;;;;;;5072322;28;20052;-52
2022/04/27 14:07:54;;;;;;;71.18;67.57;;;;;;;;;;5072748;28;20029;-48
2022/04/27 14:10:20;;;;;;;72.15;68.50;;;;;;;;;;5074937;28;20024;-49
2022/04/27 14:15:31;;;;;;;33.05;31.35;;;;;;;;;;5076348;28;20092;-51
2022/04/27 14:18:14;;;;;;;49.22;46.72;;;;;;;;;;5076491;28;20028;-50
2022/04/27 14:20:46;;;;;;;51.38;48.78;;;;;;;;;;5077644;28;20039;-48
2022/04/27 14:23:16;;;;;;;31.80;30.15;;;;;;;;;;5076029;28;20553;-52
2022/04/27 14:25:43;;;;;;;44.22;41.95;;;;;;;;;;5076074;28;20152;-50
2022/04/27 14:28:09;;;;;;;57.05;54.13;;;;;;;;;;5076864;28;20047;-49
2022/04/27 14:30:35;;;;;;;31.52;29.88;;;;;;;;;;5075934;28;20515;-51
2022/04/27 14:33:02;;;;;;;25.67;24.27;;;;;;;;;;5078053;28;20067;-50
2022/04/27 14:35:28;;;;;;;36.70;34.75;;;;;;;;;;5073539;28;20719;-50
2022/04/27 14:37:54;;;;;;;34.20;32.40;;;;;;;;;;5076078;28;20062;-48
2022/04/27 14:40:20;;;;;;;25.77;24.35;;;;;;;;;;5074030;28;20033;-51
2022/04/27 14:42:46;;;;;;;37.70;35.72;;;;;;;;;;5074454;28;20039;-52
2022/04/27 14:45:12;;;;;;;40.75;38.65;;;;;;;;;;5076896;28;20059;-49
2022/04/27 14:47:38;;;;;;;48.92;46.42;;;;;;;;;;5073978;28;20096;-51
2022/04/27 14:50:06;;;;;;;56.10;53.30;;;;;;;;;;5072866;28;20400;-51
2022/04/27 14:52:31;;;;;;;50.78;48.17;;;;;;;;;;5074033;28;20118;-52
2022/04/27 14:54:59;;;;;;;45.83;43.50;;;;;;;;;;5072381;28;20032;-52